Time;durP1;ratioP1;P1;durP2;ratioP2;P2;SDS_P1;SDS_P2;PMS_P1;PMS_P2;Temp;Humidity;BMP_temperature;BMP_pressure;BME280_temperature;BME280_humidity;BME280_pressure;Samples;Min_cycle;Max_cycle;Signal;HPM_P1;HPM_P2
2023/10/28 00:01:30;;;;;;;14.25;6.22;;;;;;;8.84;100.00;99466.69;6215493;23;20001;-80
2023/10/28 00:04:11;;;;;;;16.05;6.43;;;;;;;8.69;100.00;99448.13;6214889;23;20066;-77
2023/10/28 00:06:36;;;;;;;16.58;6.30;;;;;;;8.96;100.00;99486.38;6212586;23;20442;-84
2023/10/28 00:09:05;;;;;;;12.93;5.82;;;;;;;8.61;100.00;99420.41;6213012;23;20065;-85
2023/10/28 00:11:31;;;;;;;16.15;5.63;;;;;;;8.80;100.00;99450.69;6215152;23;20000;-82
2023/10/28 00:13:57;;;;;;;17.30;5.60;;;;;;;9.00;100.00;99490.34;6215205;23;20083;-83
2023/10/28 00:16:22;;;;;;;16.27;5.97;;;;;;;9.00;100.00;99486.94;6215134;23;20078;-81
2023/10/28 00:18:49;;;;;;;16.10;6.65;;;;;;;9.03;100.00;99497.00;6215379;23;20004;-77
2023/10/28 00:21:17;;;;;;;14.75;5.97;;;;;;;9.03;100.00;99497.00;6215313;23;20008;-80
2023/10/28 00:23:43;;;;;;;17.60;5.88;;;;;;;9.03;100.00;99484.94;6215108;23;20000;-78
2023/10/28 00:26:10;;;;;;;13.20;5.80;;;;;;;8.85;100.00;99458.88;6215045;23;20007;-85
2023/10/28 00:28:36;;;;;;;12.68;5.22;;;;;;;8.78;100.00;99442.28;6215152;23;20130;-79
2023/10/28 00:31:03;;;;;;;13.88;5.20;;;;;;;9.07;100.00;99488.94;6213578;23;20004;-85
2023/10/28 00:33:29;;;;;;;12.18;5.22;;;;;;;9.09;100.00;99493.94;6215082;23;20043;-84
2023/10/28 00:35:54;;;;;;;12.35;5.50;;;;;;;8.88;100.00;99455.25;6215019;23;20008;-83
2023/10/28 00:38:22;;;;;;;13.77;5.47;;;;;;;9.09;100.00;99491.38;6188262;23;20015;-82
2023/10/28 00:40:47;;;;;;;11.25;5.45;;;;;;;9.02;100.00;99480.72;6215103;23;20938;-85
2023/10/28 00:43:13;;;;;;;14.27;6.43;;;;;;;9.09;100.00;99488.81;6215072;23;20032;-84
2023/10/28 00:45:39;;;;;;;13.30;5.40;;;;;;;9.09;100.00;99493.94;6215731;23;20011;-86
2023/10/28 00:48:05;;;;;;;15.90;5.90;;;;;;;9.08;100.00;99493.13;6215420;23;20004;-85
2023/10/28 00:50:30;;;;;;;13.20;5.25;;;;;;;9.08;100.00;99494.91;6214895;23;20005;-81
2023/10/28 00:56:37;;;;;;;19.55;5.40;;;;;;;8.01;100.00;99334.13;6123234;23;20041;-77
2023/10/28 00:59:02;;;;;;;13.50;4.88;;;;;;;8.21;100.00;99365.22;6122646;23;20024;-76
2023/10/28 01:01:28;;;;;;;13.75;5.55;;;;;;;9.05;100.00;99497.72;6123177;23;20364;-81
2023/10/28 01:03:54;;;;;;;10.35;5.03;;;;;;;8.69;100.00;99437.03;6123082;23;20057;-85
2023/10/28 01:06:20;;;;;;;19.10;6.07;;;;;;;9.03;100.00;99491.84;6122868;23;20010;-79
2023/10/28 01:08:45;;;;;;;14.38;4.72;;;;;;;9.01;100.00;99494.53;6123007;23;20036;-79
2023/10/28 01:11:11;;;;;;;13.23;4.55;;;;;;;8.99;100.00;99490.47;6123349;23;20104;-77
2023/10/28 01:13:37;;;;;;;14.77;5.10;;;;;;;9.02;100.00;99493.59;6123044;23;20021;-77
2023/10/28 01:16:04;;;;;;;11.82;5.43;;;;;;;8.82;100.00;99466.00;6123059;23;20376;-82
2023/10/28 01:18:30;;;;;;;10.75;4.50;;;;;;;8.97;100.00;99482.84;6123143;23;20009;-79
2023/10/28 01:20:55;;;;;;;13.68;4.78;;;;;;;8.98;100.00;99476.75;6122812;23;20474;-78
2023/10/28 01:23:20;;;;;;;14.95;4.97;;;;;;;9.06;100.00;99489.88;6098374;23;20012;-78
2023/10/28 01:25:46;;;;;;;13.48;5.13;;;;;;;9.08;100.00;99493.13;6123044;23;20010;-78
2023/10/28 01:28:11;;;;;;;10.23;4.43;;;;;;;9.07;100.00;99491.50;6123303;23;20349;-85
2023/10/28 01:30:37;;;;;;;10.88;4.05;;;;;;;8.93;100.00;99463.41;6123208;23;20408;-84
2023/10/28 01:33:03;;;;;;;12.68;4.53;;;;;;;8.96;100.00;99468.34;6154622;23;20016;-80
2023/10/28 01:35:28;;;;;;;9.90;3.83;;;;;;;8.95;100.00;99468.44;6184591;23;20005;-83
2023/10/28 01:37:54;;;;;;;10.38;3.85;;;;;;;8.96;100.00;99470.94;6184734;23;20017;-79
2023/10/28 01:40:19;;;;;;;11.60;3.45;;;;;;;9.09;100.00;99488.81;6185018;23;20011;-86
2023/10/28 01:42:45;;;;;;;10.88;3.88;;;;;;;8.83;100.00;99447.88;6185001;23;20016;-85
2023/10/28 01:45:12;;;;;;;9.63;3.47;;;;;;;9.12;100.00;99489.38;6184896;23;20151;-84
2023/10/28 01:47:38;;;;;;;8.65;3.92;;;;;;;9.13;100.00;99488.44;6184972;23;20084;-79
2023/10/28 01:50:07;;;;;;;7.65;3.13;;;;;;;9.09;100.00;99484.47;6184272;23;20051;-85
2023/10/28 01:52:33;;;;;;;10.75;3.88;;;;;;;9.17;100.00;99486.44;6184532;23;20005;-80
2023/10/28 01:54:58;;;;;;;9.80;3.45;;;;;;;9.12;100.00;99473.91;6211373;23;20020;-85
2023/10/28 01:57:24;;;;;;;11.65;3.45;;;;;;;9.19;100.00;99490.53;6214768;23;20008;-84
2023/10/28 01:59:50;;;;;;;8.93;3.20;;;;;;;8.90;100.00;99425.06;6215032;23;19997;-82
2023/10/28 02:02:15;;;;;;;7.22;3.10;;;;;;;9.24;100.00;99484.19;6216524;23;20437;-81
2023/10/28 02:04:41;;;;;;;8.85;3.10;;;;;;;9.16;100.00;99466.78;6216740;23;20079;-85
2023/10/28 02:07:06;;;;;;;10.20;3.03;;;;;;;9.21;100.00;99477.53;6216131;23;20032;-86
2023/10/28 02:09:33;;;;;;;7.72;2.83;;;;;;;9.28;100.00;99488.19;6216644;23;20435;-84
2023/10/28 02:12:01;;;;;;;10.77;3.10;;;;;;;9.28;100.00;99486.41;6216199;23;20004;-84
2023/10/28 02:14:28;;;;;;;8.30;2.90;;;;;;;9.28;100.00;99485.59;6216668;23;20084;-85
2023/10/28 02:16:54;;;;;;;9.68;3.30;;;;;;;9.27;100.00;99479.63;6190044;23;20005;-85
2023/10/28 02:19:20;;;;;;;9.15;2.78;;;;;;;9.28;100.00;99483.03;6216349;23;20008;-85
2023/10/28 02:21:45;;;;;;;8.00;2.97;;;;;;;9.12;100.00;99452.50;6189699;23;20004;-84
2023/10/28 02:24:11;;;;;;;6.38;2.53;;;;;;;9.27;100.00;99479.63;6216802;23;20027;-86
2023/10/28 02:26:36;;;;;;;8.70;2.97;;;;;;;9.18;100.00;99464.91;6216623;23;20453;-83
2023/10/28 02:29:02;;;;;;;8.68;2.30;;;;;;;9.29;100.00;99484.66;6216242;23;20005;-86
2023/10/28 02:31:30;;;;;;;8.73;2.40;;;;;;;9.28;100.00;99483.03;6216029;23;20033;-85
2023/10/28 02:33:56;;;;;;;7.47;2.33;;;;;;;9.17;100.00;99463.28;6216142;23;20035;-84
2023/10/28 02:36:21;;;;;;;6.53;2.20;;;;;;;9.28;100.00;99483.03;6216155;23;20427;-84
2023/10/28 02:38:46;;;;;;;5.72;2.30;;;;;;;9.17;100.00;99473.56;6215991;23;20071;-86
2023/10/28 02:41:12;;;;;;;5.57;2.28;;;;;;;9.26;100.00;99488.31;6216280;23;20007;-84
2023/10/28 02:43:39;;;;;;;7.25;2.17;;;;;;;9.26;100.00;99482.34;6216301;23;20001;-86
2023/10/28 02:46:05;;;;;;;6.13;2.35;;;;;;;9.11;100.00;99464.56;6218049;23;20008;-86
2023/10/28 02:48:30;;;;;;;5.40;2.28;;;;;;;9.24;100.00;99479.84;6218190;23;20423;-82
2023/10/28 02:51:03;;;;;;;5.78;2.10;;;;;;;9.12;100.00;99468.75;6216165;23;20004;-80
2023/10/28 02:53:28;;;;;;;9.02;2.40;;;;;;;9.23;100.00;99485.13;6189240;23;20020;-83
2023/10/28 02:55:53;;;;;;;5.88;2.03;;;;;;;9.22;100.00;99486.88;6216270;23;20419;-82
2023/10/28 02:58:19;;;;;;;5.85;2.60;;;;;;;9.21;100.00;99490.41;6216404;23;20050;-82
2023/10/28 03:00:44;;;;;;;6.30;2.25;;;;;;;9.13;100.00;99483.28;6216091;23;20426;-84
2023/10/28 03:03:09;;;;;;;4.15;1.60;;;;;;;9.18;100.00;99483.75;6216331;23;19997;-84
2023/10/28 03:05:35;;;;;;;5.85;2.15;;;;;;;9.09;100.00;99466.44;6216330;23;20005;-78
2023/10/28 03:08:00;;;;;;;6.70;2.53;;;;;;;9.07;100.00;99468.31;6215807;23;20008;-85
2023/10/28 03:10:26;;;;;;;5.95;1.98;;;;;;;9.13;100.00;99487.63;6216317;23;20514;-78
2023/10/28 03:12:51;;;;;;;3.83;2.05;;;;;;;9.24;100.00;99497.88;6215441;23;20008;-78
2023/10/28 03:15:17;;;;;;;5.80;2.05;;;;;;;9.15;100.00;99483.19;6213790;23;20016;-78
2023/10/28 03:17:43;;;;;;;6.25;2.00;;;;;;;9.10;100.00;99469.84;6216174;23;20005;-84
2023/10/28 03:20:11;;;;;;;5.85;2.08;;;;;;;9.26;100.00;99497.78;6215911;23;20005;-78
2023/10/28 03:22:37;;;;;;;5.65;2.22;;;;;;;9.26;100.00;99490.06;6215331;23;20011;-78
2023/10/28 03:25:03;;;;;;;4.50;2.33;;;;;;;9.26;100.00;99493.47;6215880;23;20004;-85
2023/10/28 03:27:29;;;;;;;5.05;2.45;;;;;;;9.20;100.00;99483.63;6215748;23;20032;-83
2023/10/28 03:29:54;;;;;;;6.65;2.80;;;;;;;9.08;100.00;99471.72;6216082;23;20001;-77
2023/10/28 03:32:20;;;;;;;8.40;2.90;;;;;;;9.19;100.00;99502.59;6215331;23;20055;-79
2023/10/28 03:34:45;;;;;;;6.70;2.72;;;;;;;8.94;100.00;99470.19;6215976;23;20019;-83
2023/10/28 03:37:11;;;;;;;6.68;2.58;;;;;;;9.09;100.00;99504.25;6215450;23;20411;-84
2023/10/28 03:39:38;;;;;;;5.40;2.55;;;;;;;9.00;100.00;99495.47;6215523;23;20076;-78
2023/10/28 03:42:05;;;;;;;4.68;2.63;;;;;;;8.81;100.00;99478.06;6189147;23;20028;-83
2023/10/28 03:44:31;;;;;;;7.20;3.25;;;;;;;8.80;100.00;99486.72;6215909;23;20046;-78
2023/10/28 03:46:57;;;;;;;6.70;2.85;;;;;;;8.79;100.00;99490.25;6215956;23;20001;-78
2023/10/28 03:49:22;;;;;;;7.53;2.70;;;;;;;8.63;100.00;99474.31;6188957;23;20031;-78
2023/10/28 03:51:47;;;;;;;5.15;2.95;;;;;;;8.55;100.00;99461.22;6213738;23;20011;-78
2023/10/28 03:54:13;;;;;;;5.40;2.80;;;;;;;8.75;100.00;99494.00;6188813;23;20016;-78
2023/10/28 03:56:39;;;;;;;8.43;2.95;;;;;;;8.70;100.00;99496.09;6215392;23;20374;-78
2023/10/28 03:59:04;;;;;;;5.35;2.70;;;;;;;8.61;100.00;99489.88;6215407;23;20000;-78
2023/10/28 04:01:30;;;;;;;5.47;2.67;;;;;;;8.57;100.00;99487.69;6212953;23;20008;-77
2023/10/28 04:03:56;;;;;;;5.47;2.75;;;;;;;8.45;100.00;99463.66;6215702;23;20343;-77
2023/10/28 04:06:21;;;;;;;7.55;3.10;;;;;;;8.58;100.00;99484.16;6215235;23;20413;-77
2023/10/28 04:08:47;;;;;;;7.97;3.28;;;;;;;8.69;100.00;99494.44;6215107;23;20135;-77
2023/10/28 04:11:12;;;;;;;6.28;2.60;;;;;;;8.68;100.00;99492.81;6215184;23;20016;-81
2023/10/28 04:13:39;;;;;;;7.40;2.92;;;;;;;8.74;100.00;99497.47;6215342;23;20009;-81
2023/10/28 04:16:05;;;;;;;7.13;2.97;;;;;;;8.74;100.00;99483.78;6215328;23;20079;-83
2023/10/28 04:18:31;;;;;;;7.43;3.20;;;;;;;8.71;100.00;99469.41;6212669;23;20469;-80
2023/10/28 04:20:56;;;;;;;6.13;2.85;;;;;;;8.76;100.00;99467.31;6215316;23;20027;-83
2023/10/28 04:23:22;;;;;;;8.52;2.88;;;;;;;8.80;100.00;99468.72;6214776;23;20327;-82
2023/10/28 04:25:47;;;;;;;7.30;2.72;;;;;;;8.75;100.00;99465.69;6214934;23;20004;-82
2023/10/28 04:28:13;;;;;;;7.47;2.80;;;;;;;8.83;100.00;99471.03;6215594;23;20443;-84
2023/10/28 04:30:38;;;;;;;5.85;2.80;;;;;;;8.90;100.00;99479.09;6215163;23;20387;-83
2023/10/28 04:33:05;;;;;;;6.40;3.00;;;;;;;8.92;100.00;99477.22;6214855;23;20044;-86
2023/10/28 04:35:31;;;;;;;5.63;2.80;;;;;;;8.91;100.00;99473.84;6215307;23;20004;-83
2023/10/28 04:37:56;;;;;;;8.98;3.60;;;;;;;8.82;100.00;99453.13;6214941;23;20423;-84
2023/10/28 04:40:21;;;;;;;6.03;2.70;;;;;;;8.88;100.00;99457.81;6214955;23;20036;-85
2023/10/28 04:42:47;;;;;;;6.55;2.83;;;;;;;8.94;100.00;99471.97;6215385;23;20079;-83
2023/10/28 04:45:13;;;;;;;7.15;2.88;;;;;;;8.96;100.00;99467.53;6215323;23;20004;-82
2023/10/28 04:47:39;;;;;;;7.03;2.97;;;;;;;8.72;100.00;99432.44;6215145;23;20008;-83
2023/10/28 04:50:05;;;;;;;7.10;2.80;;;;;;;8.98;100.00;99465.66;6215040;23;19997;-84
2023/10/28 04:52:31;;;;;;;6.15;2.92;;;;;;;8.88;100.00;99450.91;6214932;23;20004;-83
2023/10/28 04:54:56;;;;;;;7.47;2.95;;;;;;;8.80;100.00;99429.28;6214529;23;20447;-82
2023/10/28 04:57:22;;;;;;;8.43;2.60;;;;;;;9.05;100.00;99470.22;6215285;23;20079;-82
2023/10/28 04:59:49;;;;;;;5.93;2.60;;;;;;;9.07;100.00;99468.31;6215229;23;20005;-83
2023/10/28 05:02:15;;;;;;;9.20;3.10;;;;;;;9.06;100.00;99463.31;6215171;23;20005;-85
2023/10/28 05:04:40;;;;;;;8.60;2.85;;;;;;;8.94;100.00;99438.50;6215180;23;20334;-86
2023/10/28 05:07:05;;;;;;;5.25;2.60;;;;;;;9.09;100.00;99465.63;6215191;23;20007;-84
2023/10/28 05:09:31;;;;;;;7.65;3.15;;;;;;;9.10;100.00;99459.53;6214784;23;20000;-82
2023/10/28 05:11:56;;;;;;;6.13;2.90;;;;;;;9.09;100.00;99457.91;6214602;23;20011;-82
2023/10/28 05:14:25;;;;;;;8.95;3.03;;;;;;;8.88;100.00;99427.75;6214856;23;20032;-81
2023/10/28 05:16:52;;;;;;;9.60;3.20;;;;;;;9.11;100.00;99459.41;6213498;23;20019;-82
2023/10/28 05:19:18;;;;;;;4.80;2.70;;;;;;;9.02;100.00;99444.69;6215335;23;20000;-83
2023/10/28 05:21:44;;;;;;;6.70;3.00;;;;;;;9.13;100.00;99459.28;6214953;23;20381;-84
2023/10/28 05:24:09;;;;;;;4.25;2.45;;;;;;;9.14;100.00;99469.50;6215010;23;20008;-85
2023/10/28 05:26:35;;;;;;;7.43;3.08;;;;;;;8.95;100.00;99429.81;6213329;23;20070;-81
2023/10/28 05:29:00;;;;;;;8.13;3.00;;;;;;;9.13;100.00;99467.00;6215015;23;20323;-81
2023/10/28 05:31:26;;;;;;;10.13;3.13;;;;;;;9.14;100.00;99459.19;6215063;23;20001;-80
2023/10/28 05:33:51;;;;;;;6.88;3.30;;;;;;;9.16;100.00;99462.47;6214591;23;20443;-83
2023/10/28 05:36:16;;;;;;;6.43;2.55;;;;;;;9.20;100.00;99463.84;6191231;23;20399;-84
2023/10/28 05:38:42;;;;;;;7.78;3.05;;;;;;;9.20;100.00;99461.25;6216301;23;20012;-79
2023/10/28 05:41:09;;;;;;;7.70;2.72;;;;;;;9.17;100.00;99464.09;6217365;23;20015;-84
2023/10/28 05:43:34;;;;;;;7.75;2.80;;;;;;;9.13;100.00;99448.97;6216982;23;20005;-77
2023/10/28 05:46:00;;;;;;;5.45;2.58;;;;;;;9.22;100.00;99473.19;6217345;23;20005;-82
2023/10/28 05:48:25;;;;;;;6.63;2.28;;;;;;;9.22;100.00;99468.88;6216965;23;20368;-78
2023/10/28 05:50:52;;;;;;;6.10;3.13;;;;;;;9.09;100.00;99445.84;6217167;23;20075;-85
2023/10/28 05:53:17;;;;;;;6.78;2.60;;;;;;;9.05;100.00;99446.22;6216718;23;20013;-80
2023/10/28 05:55:43;;;;;;;6.43;2.20;;;;;;;9.25;100.00;99475.56;6216895;23;20058;-78
2023/10/28 05:58:08;;;;;;;5.38;2.38;;;;;;;9.25;100.00;99478.94;6216661;23;20028;-81
2023/10/28 06:00:33;;;;;;;7.45;2.47;;;;;;;9.23;100.00;99478.22;6216783;23;20039;-82
2023/10/28 06:02:59;;;;;;;6.55;2.55;;;;;;;9.22;100.00;99478.34;6216894;23;20074;-79
2023/10/28 06:05:25;;;;;;;4.97;2.65;;;;;;;9.21;100.00;99480.09;6216535;23;20004;-81
2023/10/28 06:07:50;;;;;;;6.40;2.60;;;;;;;9.21;100.00;99482.69;6216487;23;20005;-82
2023/10/28 06:10:16;;;;;;;5.88;2.58;;;;;;;9.10;100.00;99459.53;6216623;23;20079;-79
2023/10/28 06:12:41;;;;;;;9.65;2.92;;;;;;;9.24;100.00;99481.63;6216447;23;20004;-79
2023/10/28 06:15:07;;;;;;;7.72;2.72;;;;;;;9.09;100.00;99460.47;6216456;23;20050;-77
2023/10/28 06:17:34;;;;;;;5.78;2.63;;;;;;;9.22;100.00;99475.78;6214996;23;20328;-76
2023/10/28 06:20:00;;;;;;;7.25;2.30;;;;;;;9.27;100.00;99486.53;6217221;23;20059;-79
2023/10/28 06:22:26;;;;;;;5.35;2.35;;;;;;;9.26;100.00;99485.72;6216451;23;20013;-77
2023/10/28 06:24:51;;;;;;;6.63;2.78;;;;;;;9.24;100.00;99485.00;6216151;23;20043;-77
2023/10/28 06:27:16;;;;;;;6.55;2.90;;;;;;;9.23;100.00;99488.53;6214218;23;20035;-76
2023/10/28 06:29:43;;;;;;;7.20;2.80;;;;;;;9.23;100.00;99488.53;6216387;23;20000;-75
2023/10/28 06:32:08;;;;;;;7.20;2.55;;;;;;;9.22;100.00;99488.66;6215909;23;20043;-76
2023/10/28 06:34:34;;;;;;;6.20;2.65;;;;;;;8.90;100.00;99441.31;6216175;23;20362;-74
2023/10/28 06:37:00;;;;;;;7.07;2.55;;;;;;;9.23;100.00;99487.72;6216517;23;20000;-79
2023/10/28 06:39:26;;;;;;;12.77;2.70;;;;;;;9.11;100.00;99468.88;6215795;23;20342;-77
2023/10/28 06:41:51;;;;;;;7.45;2.60;;;;;;;9.03;100.00;99458.38;6216531;23;20023;-77
2023/10/28 06:44:18;;;;;;;5.68;3.13;;;;;;;9.31;100.00;99490.50;6217326;23;20008;-79
2023/10/28 06:46:46;;;;;;;7.25;2.53;;;;;;;9.18;100.00;99470.88;6216170;23;20079;-83
2023/10/28 06:49:16;;;;;;;8.65;2.65;;;;;;;9.35;100.00;99497.88;6216423;23;20001;-82
2023/10/28 06:52:02;;;;;;;6.95;2.47;;;;;;;9.13;100.00;99451.56;6216676;23;20085;-82
2023/10/28 07:06:41;;;;;;;7.35;2.55;;;;;;;9.09;100.00;99424.41;6216012;23;20509;-78
2023/10/28 07:09:07;;;;;;;8.35;2.63;;;;;;;9.60;100.00;99501.88;6215767;23;20005;-76
2023/10/28 07:11:32;;;;;;;5.40;2.50;;;;;;;9.63;100.00;99496.47;6215599;23;20010;-77
2023/10/28 07:13:57;;;;;;;6.50;2.17;;;;;;;9.61;100.00;99487.25;6215520;23;20008;-82
2023/10/28 07:16:23;;;;;;;7.47;2.65;;;;;;;9.70;100.00;99491.66;6216251;23;20000;-85
2023/10/28 07:18:48;;;;;;;5.53;2.17;;;;;;;9.58;100.00;99478.00;6215971;23;20415;-75
2023/10/28 07:21:14;;;;;;;7.57;2.70;;;;;;;9.70;100.00;99497.63;6216050;23;20051;-76
2023/10/28 07:23:40;;;;;;;6.57;2.10;;;;;;;9.77;100.00;99500.53;6214104;23;20350;-76
2023/10/28 07:26:05;;;;;;;9.05;2.15;;;;;;;9.86;100.00;99504.16;6213754;23;20007;-82
2023/10/28 07:28:34;;;;;;;10.95;2.80;;;;;;;9.81;100.00;99493.38;6215606;23;20000;-77
2023/10/28 07:31:01;;;;;;;8.95;2.30;;;;;;;9.81;100.00;99475.31;6215753;23;20039;-77
2023/10/28 07:33:27;;;;;;;7.32;2.65;;;;;;;9.87;100.00;99487.72;6215589;23;20009;-76
2023/10/28 07:35:53;;;;;;;6.95;2.53;;;;;;;9.85;100.00;99499.94;6215601;23;20067;-79
2023/10/28 07:38:19;;;;;;;7.68;2.65;;;;;;;9.83;100.00;99505.19;6215672;23;20412;-77
2023/10/28 07:40:45;;;;;;;7.00;2.70;;;;;;;9.69;100.00;99493.41;6215746;23;20083;-77
2023/10/28 07:43:11;;;;;;;7.03;2.53;;;;;;;9.78;100.00;99504.75;6213993;23;20095;-84
2023/10/28 07:45:38;;;;;;;9.07;2.78;;;;;;;9.77;100.00;99500.53;6216580;23;20648;-84
2023/10/28 07:48:06;;;;;;;7.43;2.15;;;;;;;9.80;100.00;99481.44;6215411;23;20058;-82
2023/10/28 07:50:33;;;;;;;5.88;2.55;;;;;;;9.89;100.00;99481.50;6213852;23;20370;-80
2023/10/28 07:53:01;;;;;;;7.05;2.22;;;;;;;10.22;100.00;99523.53;6215528;23;20059;-86
2023/10/28 07:55:26;;;;;;;8.88;2.50;;;;;;;10.34;100.00;99528.53;6214963;23;20042;-78
2023/10/28 07:57:52;;;;;;;7.97;2.17;;;;;;;10.28;100.00;99505.81;6215043;23;20411;-79
2023/10/28 08:00:18;;;;;;;8.75;2.40;;;;;;;10.55;100.00;99530.28;6215435;23;20004;-81
2023/10/28 08:02:46;;;;;;;6.53;1.95;;;;;;;10.48;100.00;99511.91;6215076;23;20016;-80
2023/10/28 08:05:15;;;;;;;7.25;2.30;;;;;;;10.57;100.00;99518.88;6215924;23;20338;-78
2023/10/28 08:07:41;;;;;;;5.50;1.83;;;;;;;10.74;100.00;99537.31;6215709;23;20035;-79
2023/10/28 08:10:08;;;;;;;6.65;2.28;;;;;;;10.56;100.00;99501.75;6215436;23;20000;-80
2023/10/28 08:12:34;;;;;;;5.07;1.83;;;;;;;10.86;100.00;99544.00;6214755;23;20079;-80
2023/10/28 08:15:00;;;;;;;6.10;2.25;;;;;;;10.87;100.00;99549.03;6215200;23;20005;-86
2023/10/28 08:17:26;;;;;;;7.53;2.45;;;;;;;10.74;100.00;99525.22;6215631;23;20004;-83
2023/10/28 08:19:51;;;;;;;7.95;2.00;;;;;;;10.80;100.00;99523.84;6215849;23;20004;-80
2023/10/28 08:22:17;;;;;;;9.27;2.40;;;;;;;11.03;100.00;99542.59;6215588;23;20457;-81
2023/10/28 08:24:42;;;;;;;7.35;2.00;;;;;;;11.12;100.00;99541.81;6215295;23;20323;-82
2023/10/28 08:27:08;;;;;;;8.18;1.80;;;;;;;11.09;100.00;99534.28;6215801;23;20054;-81
2023/10/28 08:29:33;;;;;;;6.68;2.05;;;;;;;11.16;100.00;99538.81;6216344;23;19997;-79
2023/10/28 08:31:59;;;;;;;7.68;2.10;;;;;;;11.22;100.00;99531.50;6216373;23;20005;-82
2023/10/28 08:34:25;;;;;;;7.53;2.20;;;;;;;11.29;100.00;99548.91;6215786;23;20327;-85
2023/10/28 08:36:52;;;;;;;5.57;1.88;;;;;;;11.30;100.00;99563.44;6215316;23;20005;-82
2023/10/28 08:39:17;;;;;;;9.55;1.67;;;;;;;11.11;100.00;99540.13;6216031;23;20300;-85
2023/10/28 08:41:42;;;;;;;7.57;1.90;;;;;;;11.17;100.00;99547.38;6215246;23;20083;-84
2023/10/28 08:44:08;;;;;;;8.10;2.00;;;;;;;11.13;100.00;99546.84;6215167;23;20032;-82
2023/10/28 08:46:37;;;;;;;5.32;1.85;;;;;;;11.28;100.00;99565.34;6212823;23;20088;-83
2023/10/28 08:49:04;;;;;;;6.35;2.03;;;;;;;11.19;100.00;99548.88;6215480;23;20005;-83
2023/10/28 08:51:29;;;;;;;9.02;1.73;;;;;;;11.23;100.00;99548.63;6215195;23;20028;-86
2023/10/28 08:53:56;;;;;;;9.25;1.98;;;;;;;11.41;100.00;99578.06;6212619;23;20062;-82
2023/10/28 08:56:25;;;;;;;11.13;2.28;;;;;;;11.49;100.00;99579.00;6215054;23;20411;-81
2023/10/28 08:58:52;;;;;;;5.00;1.67;;;;;;;11.59;100.00;99571.28;6215162;23;20012;-85
2023/10/28 09:01:22;;;;;;;8.60;2.35;;;;;;;11.69;100.00;99577.28;6215937;23;20000;-87
2023/10/28 09:03:52;;;;;;;6.65;1.90;;;;;;;11.78;100.00;99579.06;6215003;23;20017;-90
2023/10/28 09:06:19;;;;;;;8.23;2.00;;;;;;;11.92;100.00;99585.66;6214919;23;20000;-89
2023/10/28 09:08:45;;;;;;;7.65;1.95;;;;;;;12.00;100.00;99592.75;6187989;23;20009;-85
2023/10/28 09:11:10;;;;;;;7.78;2.33;;;;;;;11.95;100.00;99563.84;6215713;23;20123;-85
2023/10/28 09:13:36;;;;;;;6.47;1.83;;;;;;;12.15;100.00;99591.38;6216629;23;20004;-85
2023/10/28 09:16:04;;;;;;;7.70;1.65;;;;;;;12.13;100.00;99600.22;6217624;23;20005;-86
2023/10/28 09:18:49;;;;;;;8.05;1.85;;;;;;;12.08;100.00;99592.84;6216674;23;20004;-86
2023/10/28 09:21:14;;;;;;;5.90;1.90;;;;;;;11.99;100.00;99597.06;6217165;23;20000;-85
2023/10/28 09:23:43;;;;;;;9.13;2.58;;;;;;;12.01;100.00;99586.63;6217067;23;20011;-87
2023/10/28 09:26:08;;;;;;;9.07;1.85;;;;;;;12.18;100.00;99592.84;6217825;23;20000;-84
2023/10/28 09:28:34;;;;;;;7.13;1.80;;;;;;;12.35;100.00;99598.16;6216684;23;20300;-84
2023/10/28 09:31:00;;;;;;;8.50;1.98;;;;;;;12.52;100.00;99596.66;6217385;23;20004;-86
2023/10/28 09:33:27;;;;;;;5.50;1.52;;;;;;;12.68;100.00;99603.00;6217045;23;20012;-85
2023/10/28 09:35:56;;;;;;;6.72;1.95;;;;;;;12.74;100.00;99585.16;6216999;23;20051;-86
2023/10/28 09:38:22;;;;;;;7.50;1.90;;;;;;;12.74;100.00;99573.97;6217406;23;20005;-84
2023/10/28 09:40:58;;;;;;;7.50;2.03;;;;;;;12.71;100.00;99561.31;6217391;23;20331;-86
2023/10/28 09:43:25;;;;;;;7.75;1.60;;;;;;;12.96;100.00;99594.34;6215655;23;20326;-87
2023/10/28 09:45:53;;;;;;;8.20;1.77;;;;;;;12.80;100.00;99576.81;6214296;23;20454;-86
2023/10/28 09:48:19;;;;;;;8.25;2.00;;;;;;;12.81;100.00;99591.41;6216414;23;20076;-86
2023/10/28 09:51:02;;;;;;;8.32;1.77;;;;;;;12.37;100.00;99540.25;6206262;22;20344;-80
2023/10/28 09:53:35;;;;;;;7.97;2.00;;;;;;;12.73;100.00;99586.09;6186323;23;20075;-80
2023/10/28 09:56:03;;;;;;;11.80;1.60;;;;;;;12.32;100.00;99518.19;6186303;23;20008;-79
2023/10/28 09:58:32;;;;;;;5.53;1.77;;;;;;;12.86;100.00;99593.56;6184465;23;20005;-79
2023/10/28 10:01:05;;;;;;;7.25;1.83;;;;;;;12.87;100.00;99600.38;6186156;23;20084;-83
2023/10/28 10:03:55;;;;;;;5.40;1.85;;;;;;;12.97;100.00;99595.16;6186847;23;20015;-87
2023/10/28 10:06:21;;;;;;;7.97;1.92;;;;;;;12.96;100.00;99583.97;6186848;23;20009;-88
2023/10/28 10:08:52;;;;;;;6.22;1.83;;;;;;;12.97;100.00;99590.78;6186784;23;20438;-86
2023/10/28 10:11:27;;;;;;;7.07;1.80;;;;;;;12.69;100.00;99574.41;6182497;23;20009;-87
2023/10/28 10:13:55;;;;;;;6.38;1.50;;;;;;;12.83;100.00;99602.44;6186693;23;20332;-87
2023/10/28 10:16:29;;;;;;;5.78;1.45;;;;;;;12.89;100.00;99604.47;6186901;23;20080;-91
2023/10/28 10:18:58;;;;;;;5.13;1.58;;;;;;;12.90;100.00;99600.09;6184251;23;20324;-86
2023/10/28 10:21:31;;;;;;;6.72;1.67;;;;;;;12.92;100.00;99606.78;6185844;23;20001;-89
2023/10/28 10:24:04;;;;;;;5.10;1.10;;;;;;;13.01;100.00;99612.88;6186106;23;20005;-82
2023/10/28 10:26:34;;;;;;;5.88;1.50;;;;;;;13.00;100.00;99600.06;6186454;23;20088;-85
2023/10/28 10:29:05;;;;;;;7.65;1.40;;;;;;;13.12;100.00;99610.13;6185904;23;20005;-83
2023/10/28 10:31:34;;;;;;;4.72;1.40;;;;;;;13.11;100.00;99602.47;6186102;23;20001;-78
2023/10/28 10:34:08;;;;;;;4.68;1.58;;;;;;;13.30;100.00;99605.03;6185703;23;20013;-81
2023/10/28 10:36:42;;;;;;;5.53;1.52;;;;;;;13.13;100.00;99562.50;6185972;23;20008;-83
2023/10/28 10:39:11;;;;;;;6.25;1.60;;;;;;;13.65;100.00;99619.84;6186309;23;20143;-85
2023/10/28 10:41:39;;;;;;;6.78;1.30;;;;;;;13.68;100.00;99616.97;6185608;23;20024;-84
2023/10/28 10:44:23;;;;;;;8.93;1.60;;;;;;;13.67;100.00;99609.34;6185556;23;20001;-83
2023/10/28 10:46:49;;;;;;;7.15;1.70;;;;;;;13.38;100.00;99584.38;6185808;23;20001;-79
2023/10/28 10:49:18;;;;;;;7.28;1.48;;;;;;;13.37;100.00;99594.88;6158141;23;20103;-80
2023/10/28 10:51:44;;;;;;;7.25;1.42;;;;;;;13.31;100.00;99611.03;6185738;23;20036;-86
2023/10/28 10:54:10;;;;;;;8.15;2.13;;;;;;;13.20;100.00;99605.06;6183430;23;20032;-79
2023/10/28 10:56:36;;;;;;;6.65;1.50;;;;;;;13.26;100.00;99601.06;6186571;23;19997;-78
2023/10/28 10:59:02;;;;;;;6.47;1.65;;;;;;;13.16;100.00;99588.13;6185911;23;20370;-78
2023/10/28 11:01:28;;;;;;;6.00;1.55;;;;;;;13.31;100.00;99591.09;6186397;23;20029;-78
2023/10/28 11:03:55;;;;;;;10.40;1.90;;;;;;;13.51;100.00;99620.34;6183823;23;20016;-79
2023/10/28 11:06:23;;;;;;;8.75;1.60;;;;;;;13.57;100.00;99614.59;6186182;23;20050;-78
2023/10/28 11:08:48;;;;;;;6.43;2.03;;;;;;;13.60;100.00;99610.88;6185818;23;20415;-79
2023/10/28 11:11:14;;;;;;;8.43;2.40;;;;;;;13.75;100.00;99604.22;6185303;23;19997;-76
2023/10/28 11:13:39;;;;;;;7.60;2.00;;;;;;;13.69;100.00;99574.50;6185344;23;20005;-78
2023/10/28 11:16:17;;;;;;;9.13;2.05;;;;;;;13.77;100.00;99592.75;6185765;23;20009;-78
2023/10/28 11:18:43;;;;;;;9.07;2.03;;;;;;;13.64;100.00;99599.22;6159512;23;20011;-79
2023/10/28 11:21:08;;;;;;;6.95;2.10;;;;;;;13.46;100.00;99594.81;6185560;23;20072;-78
2023/10/28 11:23:35;;;;;;;7.85;1.95;;;;;;;13.33;100.00;99594.34;6185934;23;20009;-83
2023/10/28 11:26:02;;;;;;;9.98;2.05;;;;;;;13.25;100.00;99599.44;6185916;23;20001;-86
2023/10/28 11:28:32;;;;;;;9.40;2.20;;;;;;;13.25;100.00;99599.44;6186895;23;20012;-81
2023/10/28 11:30:59;;;;;;;10.70;2.10;;;;;;;13.35;100.00;99595.03;6185667;23;20001;-81
2023/10/28 11:33:27;;;;;;;8.10;2.00;;;;;;;13.39;100.00;99604.16;6158844;23;20435;-81
2023/10/28 11:35:53;;;;;;;9.45;2.13;;;;;;;13.36;100.00;99599.25;6186060;23;20377;-82
2023/10/28 11:38:19;;;;;;;9.35;2.05;;;;;;;13.30;100.00;99589.47;6185738;23;20011;-82
2023/10/28 11:40:44;;;;;;;7.30;2.30;;;;;;;13.10;100.00;99557.59;6185400;23;20084;-81
2023/10/28 11:43:10;;;;;;;15.55;2.53;;;;;;;13.17;100.00;99574.22;6185979;23;20005;-81